Terminal Aerodrome Forecast
Issued by NWS

Home | Current Version | Previous Version | Text Only | Print | Product List | Glossary On
Versions: 1 2 3 4 5 6 7 8 9 10 11 12 13 14 15 16 17 18 19 20 21 22 23 24 25 26 27 28 29
075
FTUS42 KCAE 261745 AAA
TAFCUB
TAF AMD
KCUB 261745Z 2618/2718 19010G16KT P6SM VCSH BKN040
      TEMPO 2619/2621 3SM SHRA OVC025
     FM270000 17005KT P6SM BKN050
     FM270900 VRB03KT 3SM BR BKN012
     FM271400 21010KT P6SM BKN035=

USA.gov is the U.S. government's official web portal to all federal, state and local government web resources and services.